createdAt,value
2017-11-07T00:00:16.167Z,27.8
2017-11-07T00:01:14.305Z,27.8
2017-11-07T00:02:14.651Z,27.9
2017-11-07T00:03:14.470Z,27.8
2017-11-07T00:04:14.811Z,27.8
2017-11-07T00:05:16.146Z,27.8
2017-11-07T00:06:14.891Z,27.8
2017-11-07T00:07:16.549Z,27.8
2017-11-07T00:08:16.578Z,27.8
2017-11-07T00:09:14.626Z,27.8
2017-11-07T00:10:14.639Z,27.8
2017-11-07T00:11:15.008Z,27.8
2017-11-07T00:12:16.341Z,27.8
2017-11-07T00:13:14.772Z,27.8
2017-11-07T00:14:14.809Z,27.8
2017-11-07T00:15:16.838Z,27.8
2017-11-07T00:16:16.623Z,27.9
2017-11-07T00:17:15.089Z,27.9
2017-11-07T00:18:17.042Z,27.9
2017-11-07T00:19:15.136Z,27.9
2017-11-07T00:20:16.802Z,27.9
2017-11-07T00:21:15.188Z,27.8
2017-11-07T00:22:16.865Z,27.8
2017-11-07T00:23:15.554Z,27.8
2017-11-07T00:24:15.518Z,27.8
2017-11-07T00:25:17.186Z,27.8
2017-11-07T00:26:15.313Z,27.8
2017-11-07T00:27:15.719Z,27.8
2017-11-07T00:28:15.797Z,27.8
2017-11-07T00:29:17.460Z,27.8
2017-11-07T00:30:15.603Z,27.8
2017-11-07T00:31:15.659Z,27.8
2017-11-07T00:32:16.022Z,27.8
2017-11-07T00:33:17.337Z,27.8
2017-11-07T00:34:17.374Z,27.9
2017-11-07T00:35:17.798Z,27.8
2017-11-07T00:36:17.504Z,27.9
2017-11-07T00:37:17.946Z,27.8
2017-11-07T00:38:17.599Z,27.8
2017-11-07T00:39:17.614Z,27.8
2017-11-07T00:40:17.676Z,27.8
2017-11-07T00:41:17.710Z,27.8
2017-11-07T00:42:16.113Z,27.8
2017-11-07T00:43:16.156Z,27.8
2017-11-07T00:44:16.270Z,27.8
2017-11-07T00:45:17.898Z,27.8
2017-11-07T00:46:16.340Z,27.8
2017-11-07T00:47:16.398Z,27.8
2017-11-07T00:48:16.393Z,27.8
2017-11-07T00:49:16.677Z,27.8
2017-11-07T00:50:18.329Z,27.8
2017-11-07T00:51:16.434Z,27.8
2017-11-07T00:52:18.162Z,27.8
2017-11-07T00:53:18.418Z,27.8
2017-11-07T00:54:16.824Z,27.8
2017-11-07T00:55:18.224Z,27.8
2017-11-07T00:56:18.597Z,27.8
2017-11-07T00:57:17.007Z,27.8
2017-11-07T00:58:18.402Z,27.8
2017-11-07T00:59:17.193Z,27.8
2017-11-07T01:00:16.908Z,27.8
2017-11-07T01:01:18.504Z,27.8
2017-11-07T01:02:16.942Z,27.8
2017-11-07T01:03:17.278Z,27.8
2017-11-07T01:04:17.348Z,27.8
2017-11-07T01:05:18.772Z,27.8
2017-11-07T01:06:17.472Z,27.8
2017-11-07T01:07:18.889Z,27.8
2017-11-07T01:08:17.253Z,27.8
2017-11-07T01:09:18.964Z,27.8
2017-11-07T01:10:18.986Z,27.8
2017-11-07T01:11:19.406Z,27.8
2017-11-07T01:12:19.433Z,27.8
2017-11-07T01:13:17.553Z,27.8
2017-11-07T01:14:19.594Z,27.8
2017-11-07T01:15:17.656Z,27.8
2017-11-07T01:16:17.755Z,27.8
2017-11-07T01:17:18.034Z,27.8
2017-11-07T01:18:19.389Z,27.8
2017-11-07T01:19:19.437Z,27.8
2017-11-07T01:20:18.152Z,27.8
2017-11-07T01:21:19.436Z,27.7
2017-11-07T01:22:18.172Z,27.7
2017-11-07T01:23:17.951Z,27.7
2017-11-07T01:24:19.894Z,27.7
2017-11-07T01:25:18.340Z,27.7
2017-11-07T01:26:19.975Z,27.7
2017-11-07T01:27:18.120Z,27.7
2017-11-07T01:28:19.833Z,27.7
2017-11-07T01:29:18.525Z,27.7
2017-11-07T01:30:19.951Z,27.7
2017-11-07T01:31:20.019Z,27.7
2017-11-07T01:32:20.367Z,27.7
2017-11-07T01:33:18.429Z,27.8
2017-11-07T01:34:18.530Z,27.7
2017-11-07T01:35:20.130Z,27.8
2017-11-07T01:36:18.567Z,27.8
2017-11-07T01:37:20.610Z,27.8
2017-11-07T01:38:18.958Z,27.8
2017-11-07T01:39:20.360Z,27.8
2017-11-07T01:40:18.753Z,27.7
2017-11-07T01:41:19.124Z,27.8
2017-11-07T01:42:19.265Z,27.7
2017-11-07T01:43:20.648Z,27.8
2017-11-07T01:44:20.981Z,27.8
2017-11-07T01:45:19.351Z,27.8
2017-11-07T01:46:19.396Z,27.8
2017-11-07T01:47:20.819Z,27.8
2017-11-07T01:48:19.547Z,27.8
2017-11-07T01:49:19.610Z,27.7
2017-11-07T01:50:20.972Z,27.8
2017-11-07T01:51:19.759Z,27.8
2017-11-07T01:52:21.180Z,27.8
2017-11-07T01:53:21.178Z,27.8
2017-11-07T01:54:21.225Z,27.7
2017-11-07T01:55:19.715Z,27.7
2017-11-07T01:56:21.437Z,27.7
2017-11-07T01:57:21.754Z,27.7
2017-11-07T01:58:21.465Z,27.7
2017-11-07T01:59:19.875Z,27.7
2017-11-07T02:00:23.133Z,27.7
2017-11-07T02:01:19.967Z,27.7
2017-11-07T02:02:22.071Z,27.7
2017-11-07T02:03:21.763Z,27.7
2017-11-07T02:04:20.463Z,27.7
2017-11-07T02:05:20.199Z,27.7
2017-11-07T02:06:22.175Z,27.7
2017-11-07T02:07:20.575Z,27.7
2017-11-07T02:08:22.338Z,27.7
2017-11-07T02:09:21.929Z,27.7
2017-11-07T02:10:20.436Z,27.7
2017-11-07T02:11:22.134Z,27.7
2017-11-07T02:12:20.850Z,27.7
2017-11-07T02:13:22.252Z,27.7
2017-11-07T02:14:20.702Z,27.7
2017-11-07T02:15:22.743Z,27.7
2017-11-07T02:16:22.559Z,27.7
2017-11-07T02:17:20.933Z,27.7
2017-11-07T02:18:21.222Z,27.7
2017-11-07T02:19:20.935Z,27.7
2017-11-07T02:20:22.963Z,27.7
2017-11-07T02:21:21.067Z,27.7
2017-11-07T02:22:21.475Z,27.7
2017-11-07T02:23:22.852Z,27.7
2017-11-07T02:24:21.250Z,27.7
2017-11-07T02:25:22.934Z,27.7
2017-11-07T02:26:22.960Z,27.7
2017-11-07T02:27:22.998Z,27.7
2017-11-07T02:28:23.023Z,27.7
2017-11-07T02:29:21.711Z,27.7
2017-11-07T02:30:21.767Z,27.7
2017-11-07T02:31:23.544Z,27.7
2017-11-07T02:32:21.642Z,27.7
2017-11-07T02:33:23.360Z,27.7
2017-11-07T02:34:21.796Z,27.7
2017-11-07T02:35:23.707Z,27.7
2017-11-07T02:36:21.883Z,27.7
2017-11-07T02:37:22.308Z,27.7
2017-11-07T02:38:23.980Z,27.7
2017-11-07T02:39:22.041Z,27.7
2017-11-07T02:40:22.421Z,27.7
2017-11-07T02:41:24.132Z,27.7
2017-11-07T02:42:22.293Z,27.7
2017-11-07T02:43:24.326Z,27.7
2017-11-07T02:44:22.655Z,27.7
2017-11-07T02:45:22.702Z,27.7
2017-11-07T02:46:24.102Z,27.7
2017-11-07T02:47:22.506Z,27.7
2017-11-07T02:48:22.889Z,27.7
2017-11-07T02:49:24.548Z,27.7
2017-11-07T02:50:24.621Z,27.7
2017-11-07T02:51:22.717Z,27.7
2017-11-07T02:52:22.988Z,27.7
2017-11-07T02:53:22.749Z,27.6
2017-11-07T02:54:24.667Z,27.7
2017-11-07T02:55:23.101Z,27.7
2017-11-07T02:56:24.431Z,27.7
2017-11-07T02:57:23.096Z,27.7
2017-11-07T02:58:22.852Z,27.7
2017-11-07T02:59:24.838Z,27.7
2017-11-07T03:00:24.600Z,27.7
2017-11-07T03:01:24.553Z,27.7
2017-11-07T03:02:23.362Z,27.7
2017-11-07T03:03:25.086Z,27.7
2017-11-07T03:04:23.141Z,27.7
2017-11-07T03:05:25.144Z,27.7
2017-11-07T03:06:24.797Z,27.7
2017-11-07T03:07:25.213Z,27.7
2017-11-07T03:08:23.337Z,27.7
2017-11-07T03:09:23.708Z,27.7
2017-11-07T03:10:25.386Z,27.7
2017-11-07T03:11:23.522Z,27.7
2017-11-07T03:12:23.593Z,27.7
2017-11-07T03:13:24.002Z,27.7
2017-11-07T03:14:24.017Z,27.7
2017-11-07T03:15:25.673Z,27.7
2017-11-07T03:16:25.728Z,27.6
2017-11-07T03:17:23.822Z,27.6
2017-11-07T03:18:24.185Z,27.6
2017-11-07T03:19:25.881Z,27.6
2017-11-07T03:20:24.051Z,27.6
2017-11-07T03:21:24.061Z,27.6
2017-11-07T03:22:26.147Z,27.7
2017-11-07T03:23:26.146Z,27.7
2017-11-07T03:24:25.892Z,27.6
2017-11-07T03:25:24.296Z,27.6
2017-11-07T03:26:25.945Z,27.6
2017-11-07T03:27:25.975Z,27.6
2017-11-07T03:28:24.698Z,27.6
2017-11-07T03:29:24.708Z,27.6
2017-11-07T03:30:24.459Z,27.6
2017-11-07T03:31:26.133Z,27.6
2017-11-07T03:32:26.535Z,27.6
2017-11-07T03:33:26.328Z,27.6
2017-11-07T03:34:26.686Z,27.6
2017-11-07T03:35:26.781Z,27.6
2017-11-07T03:36:26.499Z,27.6
2017-11-07T03:37:24.978Z,27.6
2017-11-07T03:38:26.677Z,27.6
2017-11-07T03:39:25.382Z,27.6
2017-11-07T03:40:25.435Z,27.6
2017-11-07T03:41:25.536Z,27.6
2017-11-07T03:42:26.870Z,27.6
2017-11-07T03:43:27.231Z,27.6
2017-11-07T03:44:25.426Z,27.6
2017-11-07T03:45:25.777Z,27.6
2017-11-07T03:46:25.469Z,27.6
2017-11-07T03:47:25.523Z,27.6
2017-11-07T03:48:27.178Z,27.6
2017-11-07T03:49:27.378Z,27.6
2017-11-07T03:50:25.718Z,27.6
2017-11-07T03:51:27.358Z,27.6
2017-11-07T03:52:27.500Z,27.6
2017-11-07T03:53:27.539Z,27.6
2017-11-07T03:54:26.242Z,27.6
2017-11-07T03:55:27.967Z,27.6
2017-11-07T03:56:27.939Z,27.6
2017-11-07T03:57:27.668Z,27.6
2017-11-07T03:58:27.726Z,27.6
2017-11-07T03:59:26.141Z,27.6
2017-11-07T04:00:28.115Z,27.6
2017-11-07T04:01:28.387Z,27.6
2017-11-07T04:02:26.363Z,27.6
2017-11-07T04:03:26.361Z,27.6
2017-11-07T04:04:28.078Z,27.6
2017-11-07T04:05:28.186Z,27.6
2017-11-07T04:06:26.580Z,27.6
2017-11-07T04:07:28.271Z,27.6
2017-11-07T04:08:26.609Z,27.6
2017-11-07T04:09:26.933Z,27.6
2017-11-07T04:10:27.001Z,27.6
2017-11-07T04:11:28.712Z,27.6
2017-11-07T04:12:28.452Z,27.6
2017-11-07T04:13:28.870Z,27.6
2017-11-07T04:14:28.882Z,27.6
2017-11-07T04:15:27.010Z,27.6
2017-11-07T04:16:27.308Z,27.6
2017-11-07T04:17:27.047Z,27.6
2017-11-07T04:18:27.396Z,27.6
2017-11-07T04:19:27.465Z,27.6
2017-11-07T04:20:27.405Z,27.6
2017-11-07T04:21:28.807Z,27.6
2017-11-07T04:22:27.609Z,27.6
2017-11-07T04:23:27.729Z,27.6
2017-11-07T04:24:29.386Z,27.6
2017-11-07T04:25:27.494Z,27.6
2017-11-07T04:26:29.618Z,27.6
2017-11-07T04:27:28.034Z,27.6
2017-11-07T04:28:29.675Z,27.6
2017-11-07T04:29:27.897Z,27.6
2017-11-07T04:30:27.791Z,27.6
2017-11-07T04:31:29.842Z,27.6
2017-11-07T04:32:28.227Z,27.6
2017-11-07T04:33:28.296Z,27.6
2017-11-07T04:34:29.994Z,27.6
2017-11-07T04:35:28.463Z,27.6
2017-11-07T04:36:28.213Z,27.6
2017-11-07T04:37:28.490Z,27.6
2017-11-07T04:38:29.909Z,27.6
2017-11-07T04:39:29.948Z,27.6
2017-11-07T04:40:30.292Z,27.6
2017-11-07T04:41:29.988Z,27.6
2017-11-07T04:42:28.445Z,27.6
2017-11-07T04:43:28.456Z,27.5
2017-11-07T04:44:30.150Z,27.5
2017-11-07T04:45:28.837Z,27.6
2017-11-07T04:46:28.677Z,27.6
2017-11-07T04:47:28.742Z,27.5
2017-11-07T04:48:28.752Z,27.6
2017-11-07T04:49:31.068Z,27.5
2017-11-07T04:50:30.763Z,27.5
2017-11-07T04:51:30.738Z,27.5
2017-11-07T04:52:28.889Z,27.5
2017-11-07T04:53:28.961Z,27.5
2017-11-07T04:54:28.956Z,27.5
2017-11-07T04:55:29.048Z,27.6
2017-11-07T04:56:31.078Z,27.6
2017-11-07T04:57:30.800Z,27.6
2017-11-07T04:58:30.893Z,27.5
2017-11-07T04:59:29.732Z,27.6
2017-11-07T05:00:29.725Z,27.6
2017-11-07T05:01:29.692Z,27.5
2017-11-07T05:02:29.466Z,27.6
2017-11-07T05:03:29.834Z,27.6
2017-11-07T05:04:29.889Z,27.5
2017-11-07T05:05:31.299Z,27.5
2017-11-07T05:06:30.018Z,27.5
2017-11-07T05:07:31.666Z,27.5
2017-11-07T05:08:31.703Z,27.5
2017-11-07T05:09:31.787Z,27.5
2017-11-07T05:10:31.824Z,27.5
2017-11-07T05:11:31.430Z,27.5
2017-11-07T05:12:31.491Z,27.5
2017-11-07T05:13:30.992Z,27.5
2017-11-07T05:14:30.913Z,27.5
2017-11-07T05:15:32.300Z,27.5
2017-11-07T05:16:31.400Z,27.5
2017-11-07T05:17:32.033Z,27.5
2017-11-07T05:18:30.462Z,27.5
2017-11-07T05:19:32.095Z,27.5
2017-11-07T05:20:31.847Z,27.5
2017-11-07T05:21:30.288Z,27.5
2017-11-07T05:22:31.936Z,27.6
2017-11-07T05:23:32.347Z,27.5
2017-11-07T05:24:32.403Z,27.5
2017-11-07T05:25:32.154Z,27.5
2017-11-07T05:26:32.533Z,27.5
2017-11-07T05:27:32.206Z,27.5
2017-11-07T05:28:32.242Z,27.6
2017-11-07T05:29:30.659Z,27.5
2017-11-07T05:30:32.302Z,27.6
2017-11-07T05:31:32.334Z,27.5
2017-11-07T05:32:30.810Z,27.5
2017-11-07T05:33:31.107Z,27.5
2017-11-07T05:34:32.946Z,27.4
2017-11-07T05:35:31.238Z,27.4
2017-11-07T05:36:32.553Z,27.3
2017-11-07T05:37:32.677Z,27.3
2017-11-07T05:38:31.051Z,27.3
2017-11-07T05:39:31.189Z,27.3
2017-11-07T05:40:31.662Z,27.2
2017-11-07T05:41:32.855Z,27.2
2017-11-07T05:42:31.278Z,27.2
2017-11-07T05:43:31.659Z,27.2
2017-11-07T05:44:33.109Z,27.2
2017-11-07T05:45:33.160Z,27.2
2017-11-07T05:46:31.566Z,27.2
2017-11-07T05:47:31.988Z,27.2
2017-11-07T05:48:33.694Z,27.2
2017-11-07T05:49:32.220Z,27.2
2017-11-07T05:50:31.855Z,27.2
2017-11-07T05:51:33.806Z,27.2
2017-11-07T05:52:32.039Z,27.2
2017-11-07T05:53:32.061Z,27.2
2017-11-07T05:54:34.039Z,27.2
2017-11-07T05:55:33.804Z,27.3
2017-11-07T05:56:32.526Z,27.3
2017-11-07T05:57:33.898Z,27.3
2017-11-07T05:58:32.192Z,27.3
2017-11-07T05:59:32.640Z,27.2
2017-11-07T06:00:33.982Z,27.3
2017-11-07T06:01:32.398Z,27.3
2017-11-07T06:02:34.465Z,27.3
2017-11-07T06:03:34.175Z,27.3
2017-11-07T06:04:34.257Z,27.3
2017-11-07T06:05:32.645Z,27.3
2017-11-07T06:06:34.697Z,27.3
2017-11-07T06:07:32.777Z,27.3
2017-11-07T06:08:34.787Z,27.3
2017-11-07T06:09:33.212Z,27.3
2017-11-07T06:10:33.299Z,27.3
2017-11-07T06:11:33.091Z,27.3
2017-11-07T06:12:35.119Z,27.3
2017-11-07T06:13:33.365Z,27.3
2017-11-07T06:14:33.127Z,27.3
2017-11-07T06:15:33.253Z,27.3
2017-11-07T06:16:34.896Z,27.3
2017-11-07T06:17:33.624Z,27.3
2017-11-07T06:18:33.668Z,27.4
2017-11-07T06:19:35.038Z,27.4
2017-11-07T06:20:35.344Z,27.4
2017-11-07T06:21:35.045Z,27.4
2017-11-07T06:22:33.788Z,27.4
2017-11-07T06:23:35.149Z,27.4
2017-11-07T06:24:35.135Z,27.4
2017-11-07T06:25:35.265Z,27.4
2017-11-07T06:26:35.711Z,27.4
2017-11-07T06:27:35.706Z,27.4
2017-11-07T06:28:34.078Z,27.4
2017-11-07T06:29:34.137Z,27.4
2017-11-07T06:30:35.857Z,27.4
2017-11-07T06:31:34.269Z,27.4
2017-11-07T06:32:35.629Z,27.4
2017-11-07T06:33:34.323Z,27.3
2017-11-07T06:34:34.079Z,27.4
2017-11-07T06:35:36.078Z,27.4
2017-11-07T06:36:35.867Z,27.4
2017-11-07T06:37:35.934Z,27.4
2017-11-07T06:38:34.403Z,27.4
2017-11-07T06:39:36.124Z,27.4
2017-11-07T06:40:34.785Z,27.4
2017-11-07T06:41:34.898Z,27.4
2017-11-07T06:42:36.548Z,27.4
2017-11-07T06:43:34.762Z,27.4
2017-11-07T06:44:34.792Z,27.5
2017-11-07T06:45:36.432Z,27.5
2017-11-07T06:46:36.479Z,27.5
2017-11-07T06:47:35.216Z,27.5
2017-11-07T06:48:35.497Z,27.5
2017-11-07T06:49:37.111Z,27.5
2017-11-07T06:50:35.424Z,27.5
2017-11-07T06:51:35.548Z,27.5
2017-11-07T06:52:37.164Z,27.5
2017-11-07T06:53:36.947Z,27.5
2017-11-07T06:54:35.394Z,27.6
2017-11-07T06:55:37.403Z,27.6
2017-11-07T06:56:35.574Z,27.7
2017-11-07T06:57:35.978Z,27.7
2017-11-07T06:58:37.508Z,27.8
2017-11-07T06:59:37.211Z,27.8
2017-11-07T07:00:37.678Z,27.9
2017-11-07T07:01:35.754Z,27.9
2017-11-07T07:02:37.433Z,28
2017-11-07T07:03:35.975Z,28
2017-11-07T07:04:37.999Z,28
2017-11-07T07:05:36.103Z,28
2017-11-07T07:06:36.027Z,28.1
2017-11-07T07:07:37.723Z,28.1
2017-11-07T07:08:36.505Z,28.2
2017-11-07T07:09:38.066Z,28.3
2017-11-07T07:10:39.794Z,28.3
2017-11-07T07:11:36.246Z,28.3
2017-11-07T07:12:37.935Z,28.3
2017-11-07T07:13:36.385Z,28.4
2017-11-07T07:14:38.460Z,28.4
2017-11-07T07:15:36.882Z,28.4
2017-11-07T07:16:38.124Z,28.4
2017-11-07T07:17:36.985Z,28.5
2017-11-07T07:18:38.356Z,28.4
2017-11-07T07:19:36.666Z,28.4
2017-11-07T07:20:36.963Z,28.4
2017-11-07T07:21:36.967Z,28.3
2017-11-07T07:22:38.675Z,28.3
2017-11-07T07:23:37.086Z,28.3
2017-11-07T07:24:37.161Z,28.3
2017-11-07T07:25:37.292Z,28.3
2017-11-07T07:26:39.049Z,28.4
2017-11-07T07:27:38.911Z,28.4
2017-11-07T07:28:37.090Z,28.4
2017-11-07T07:29:38.879Z,28.4
2017-11-07T07:30:38.977Z,28.5
2017-11-07T07:31:40.070Z,28.5
2017-11-07T07:32:37.592Z,28.5
2017-11-07T07:33:39.085Z,28.6
2017-11-07T07:34:39.699Z,28.6
2017-11-07T07:35:38.867Z,28.5
2017-11-07T07:36:39.444Z,28.1
2017-11-07T07:37:39.787Z,27.7
2017-11-07T07:38:40.253Z,27.3
2017-11-07T07:39:39.444Z,27.1
2017-11-07T07:40:38.293Z,26.9
2017-11-07T07:41:38.287Z,26.7
2017-11-07T07:42:38.304Z,26.4
2017-11-07T07:43:39.757Z,26
2017-11-07T07:44:38.456Z,25.6
2017-11-07T07:45:38.092Z,25.3
2017-11-07T07:46:39.107Z,24.9
2017-11-07T07:47:38.349Z,24.7
2017-11-07T07:48:38.686Z,24.6
2017-11-07T07:49:40.287Z,24.7
2017-11-07T07:50:38.580Z,24.7
2017-11-07T07:51:40.396Z,24.7
2017-11-07T07:52:38.853Z,24.6
2017-11-07T07:53:38.561Z,24.5
2017-11-07T07:54:38.849Z,24.4
2017-11-07T07:55:40.349Z,24.1
2017-11-07T07:56:39.210Z,24.1
2017-11-07T07:57:40.953Z,23.9
2017-11-07T07:58:39.297Z,23.8
2017-11-07T07:59:40.492Z,23.7
2017-11-07T08:00:39.335Z,23.7
2017-11-07T08:01:40.882Z,23.7
2017-11-07T08:02:39.205Z,23.7
2017-11-07T08:03:40.910Z,23.7
2017-11-07T08:04:39.296Z,23.7
2017-11-07T08:05:39.294Z,23.9
2017-11-07T08:06:42.199Z,24.1
2017-11-07T08:07:39.526Z,24.4
2017-11-07T08:08:40.788Z,24.6
2017-11-07T08:09:39.480Z,24.9
2017-11-07T08:10:39.585Z,25.1
2017-11-07T08:11:39.581Z,25.4
2017-11-07T08:12:41.385Z,25.6
2017-11-07T08:13:39.434Z,25.8
2017-11-07T08:14:41.130Z,26
2017-11-07T08:15:41.129Z,26.1
2017-11-07T08:16:39.537Z,26.3
2017-11-07T08:17:41.201Z,26.4
2017-11-07T08:18:39.605Z,26.5
2017-11-07T08:19:41.838Z,26.7
2017-11-07T08:20:41.267Z,26.8
2017-11-07T08:21:40.162Z,26.9
2017-11-07T08:22:39.769Z,26.7
2017-11-07T08:23:41.791Z,26.4
2017-11-07T08:24:42.612Z,26.2
2017-11-07T08:25:41.580Z,26
2017-11-07T08:26:41.699Z,25.7
2017-11-07T08:27:41.677Z,25.5
2017-11-07T08:28:40.108Z,25.4
2017-11-07T08:29:40.152Z,25.4
2017-11-07T08:30:42.255Z,25.5
2017-11-07T08:31:40.616Z,25.5
2017-11-07T08:32:40.728Z,25.6
2017-11-07T08:33:42.226Z,25.6
2017-11-07T08:34:41.989Z,25.5
2017-11-07T08:35:42.040Z,25.3
2017-11-07T08:36:40.387Z,25.1
2017-11-07T08:37:42.122Z,24.9
2017-11-07T08:38:42.537Z,25
2017-11-07T08:39:41.018Z,25.1
2017-11-07T08:40:40.709Z,25.3
2017-11-07T08:41:42.371Z,25.4
2017-11-07T08:42:42.336Z,25.6
2017-11-07T08:43:42.438Z,25.8
2017-11-07T08:44:42.729Z,25.9
2017-11-07T08:45:40.812Z,26
2017-11-07T08:46:42.817Z,26.1
2017-11-07T08:47:40.983Z,26
2017-11-07T08:48:42.565Z,26
2017-11-07T08:49:42.504Z,25.9
2017-11-07T08:50:42.500Z,25.8
2017-11-07T08:51:43.033Z,25.7
2017-11-07T08:52:41.003Z,25.6
2017-11-07T08:53:41.332Z,25.5
2017-11-07T08:54:42.724Z,25.4
2017-11-07T08:55:42.805Z,25.4
2017-11-07T08:56:41.271Z,25.4
2017-11-07T08:57:43.202Z,25.4
2017-11-07T08:58:41.306Z,25.4
2017-11-07T08:59:41.437Z,25.4
2017-11-07T09:00:43.049Z,25.4
2017-11-07T09:01:41.767Z,25.4
2017-11-07T09:02:43.450Z,25.4
2017-11-07T09:03:43.476Z,25.4
2017-11-07T09:04:43.478Z,25.4
2017-11-07T09:05:43.611Z,25.4
2017-11-07T09:06:43.752Z,25.4
2017-11-07T09:07:43.522Z,25.5
2017-11-07T09:08:43.651Z,25.6
2017-11-07T09:09:43.387Z,25.7
2017-11-07T09:10:41.807Z,25.8
2017-11-07T09:11:42.556Z,25.9
2017-11-07T09:12:42.489Z,26
2017-11-07T09:13:44.044Z,25.9
2017-11-07T09:14:43.683Z,25.9
2017-11-07T09:15:42.436Z,25.9
2017-11-07T09:16:44.104Z,25.7
2017-11-07T09:17:42.589Z,25.6
2017-11-07T09:18:43.871Z,25.5
2017-11-07T09:19:44.014Z,25.5
2017-11-07T09:20:44.318Z,25.5
2017-11-07T09:21:44.040Z,25.5
2017-11-07T09:22:44.722Z,25.5
2017-11-07T09:23:44.286Z,25.7
2017-11-07T09:24:43.132Z,26
2017-11-07T09:25:44.613Z,26.4
2017-11-07T09:26:44.498Z,26.6
2017-11-07T09:27:42.860Z,26.9
2017-11-07T09:28:44.753Z,27.2
2017-11-07T09:29:44.730Z,27.4
2017-11-07T09:30:43.374Z,27.6
2017-11-07T09:31:43.248Z,27.8
2017-11-07T09:32:44.120Z,28
2017-11-07T09:33:43.369Z,28.1
2017-11-07T09:34:43.385Z,28
2017-11-07T09:35:45.842Z,27.9
2017-11-07T09:36:43.571Z,27.8
2017-11-07T09:37:44.965Z,27.6
2017-11-07T09:38:43.315Z,27.5
2017-11-07T09:39:46.544Z,27.2
2017-11-07T09:40:44.825Z,26.9
2017-11-07T09:41:45.330Z,26.6
2017-11-07T09:42:43.628Z,26.3
2017-11-07T09:43:43.679Z,26
2017-11-07T09:44:43.443Z,25.8
2017-11-07T09:45:45.144Z,25.5
2017-11-07T09:46:43.920Z,25.4
2017-11-07T09:47:45.198Z,25.2
2017-11-07T09:48:45.683Z,25.1
2017-11-07T09:49:43.743Z,25.1
2017-11-07T09:50:45.744Z,25.2
2017-11-07T09:51:43.864Z,25.3
2017-11-07T09:52:45.989Z,25.5
2017-11-07T09:53:44.065Z,25.6
2017-11-07T09:54:45.670Z,25.7
2017-11-07T09:55:44.283Z,25.8
2017-11-07T09:56:44.462Z,25.9
2017-11-07T09:57:44.166Z,25.9
2017-11-07T09:58:44.126Z,25.7
2017-11-07T09:59:44.586Z,25.6
2017-11-07T10:00:46.581Z,25.4
2017-11-07T10:01:46.850Z,25.3
2017-11-07T10:02:46.995Z,25.1
2017-11-07T10:03:47.538Z,25.1
2017-11-07T10:04:48.334Z,25.1
2017-11-07T10:05:47.095Z,25
2017-11-07T10:06:44.703Z,24.9
2017-11-07T10:07:46.726Z,24.8
2017-11-07T10:08:44.764Z,24.7
2017-11-07T10:09:46.549Z,24.7
2017-11-07T10:10:44.869Z,24.5
2017-11-07T10:11:45.147Z,24.5
2017-11-07T10:12:45.218Z,24.4
2017-11-07T10:13:45.940Z,24.4
2017-11-07T10:14:47.014Z,24.3
2017-11-07T10:15:48.369Z,24.3
2017-11-07T10:16:45.558Z,24.2
2017-11-07T10:17:47.313Z,24.2
2017-11-07T10:18:47.866Z,24.2
2017-11-07T10:19:46.920Z,24.2
2017-11-07T10:20:47.178Z,24.1
2017-11-07T10:21:47.233Z,24.1
2017-11-07T10:22:47.247Z,24
2017-11-07T10:23:45.704Z,24
2017-11-07T10:24:45.711Z,23.9
2017-11-07T10:25:48.273Z,23.9
2017-11-07T10:26:45.434Z,23.8
2017-11-07T10:27:45.607Z,23.7
2017-11-07T10:28:48.611Z,23.7
2017-11-07T10:29:51.403Z,23.6
2017-11-07T10:30:47.617Z,23.6
2017-11-07T10:31:47.954Z,23.5
2017-11-07T10:32:47.409Z,23.5
2017-11-07T10:33:47.876Z,23.4
2017-11-07T10:34:47.730Z,23.4
2017-11-07T10:35:46.410Z,23.3
2017-11-07T10:36:46.513Z,23.3
2017-11-07T10:37:46.080Z,23.3
2017-11-07T10:38:47.424Z,23.2
2017-11-07T10:39:48.027Z,23.2
2017-11-07T10:40:52.153Z,23.2
2017-11-07T10:41:48.370Z,23.1
2017-11-07T10:42:46.341Z,23
2017-11-07T10:43:47.149Z,23
2017-11-07T10:44:48.061Z,23
2017-11-07T10:45:46.784Z,23
2017-11-07T10:46:48.501Z,23
2017-11-07T10:47:46.603Z,23
2017-11-07T10:48:47.099Z,23
2017-11-07T10:49:48.341Z,23
2017-11-07T10:50:48.246Z,23.1
2017-11-07T10:51:48.746Z,23.2
2017-11-07T10:52:46.874Z,23.3
2017-11-07T10:53:46.870Z,23.4
2017-11-07T10:54:47.293Z,23.4
2017-11-07T10:55:47.323Z,23.5
2017-11-07T10:56:48.656Z,23.5
2017-11-07T10:57:49.168Z,23.5
2017-11-07T10:58:47.120Z,23.5
2017-11-07T10:59:47.173Z,23.6
2017-11-07T11:00:47.102Z,23.5
2017-11-07T11:01:49.117Z,23.5
2017-11-07T11:02:48.856Z,23.5
2017-11-07T11:03:47.504Z,23.5
2017-11-07T11:04:47.567Z,23.7
2017-11-07T11:05:49.920Z,23.9
2017-11-07T11:06:47.606Z,24.1
2017-11-07T11:07:47.764Z,24.3
2017-11-07T11:08:47.978Z,24.4
2017-11-07T11:09:48.228Z,24.4
2017-11-07T11:10:47.622Z,24.4
2017-11-07T11:11:49.254Z,24.4
2017-11-07T11:12:49.969Z,24.5
2017-11-07T11:13:47.730Z,24.5
2017-11-07T11:14:51.199Z,24.5
2017-11-07T11:15:49.000Z,24.5
2017-11-07T11:16:48.158Z,24.6
2017-11-07T11:17:49.154Z,24.6
2017-11-07T11:18:48.330Z,24.6
2017-11-07T11:19:50.722Z,24.7
2017-11-07T11:20:49.535Z,24.8
2017-11-07T11:22:04.412Z,24.8
2017-11-07T11:22:56.845Z,24.8
2017-11-07T11:23:49.724Z,24.7
2017-11-07T11:24:49.983Z,24.7
2017-11-07T11:25:48.431Z,24.7
2017-11-07T11:26:48.073Z,24.7
2017-11-07T11:27:48.272Z,24.6
2017-11-07T11:28:48.818Z,24.5
2017-11-07T11:29:48.491Z,24.7
2017-11-07T11:30:49.762Z,24.7
2017-11-07T11:31:49.865Z,24.7
2017-11-07T11:32:49.963Z,24.8
2017-11-07T11:33:50.491Z,24.8
2017-11-07T11:34:49.939Z,24.8
2017-11-07T11:35:48.963Z,24.8
2017-11-07T11:36:48.490Z,24.8
2017-11-07T11:37:51.421Z,24.8
2017-11-07T11:38:50.606Z,25
2017-11-07T11:39:48.639Z,25.1
2017-11-07T11:40:50.629Z,25.2
2017-11-07T11:41:49.036Z,25.3
2017-11-07T11:42:50.719Z,25.3
2017-11-07T11:43:50.862Z,25.4
2017-11-07T11:44:50.978Z,25.3
2017-11-07T11:45:49.545Z,25.4
2017-11-07T11:46:49.551Z,25.4
2017-11-07T11:47:49.244Z,25.5
2017-11-07T11:48:51.695Z,25.6
2017-11-07T11:49:49.252Z,25.6
2017-11-07T11:50:49.635Z,25.8
2017-11-07T11:51:53.151Z,25.8
2017-11-07T11:52:51.933Z,25.9
2017-11-07T11:53:49.879Z,25.9
2017-11-07T11:54:49.943Z,26
2017-11-07T11:55:51.522Z,26
2017-11-07T11:56:49.559Z,26.1
2017-11-07T11:57:50.129Z,26.1
2017-11-07T11:58:51.183Z,26
2017-11-07T11:59:50.351Z,26
2017-11-07T12:00:52.743Z,25.9
2017-11-07T12:01:49.992Z,25.8
2017-11-07T12:02:50.537Z,25.7
2017-11-07T12:03:49.970Z,25.7
2017-11-07T12:04:50.330Z,25.7
2017-11-07T12:05:50.683Z,25.7
2017-11-07T12:06:52.055Z,25.7
2017-11-07T12:07:50.089Z,25.6
2017-11-07T12:08:51.881Z,25.6
2017-11-07T12:09:50.592Z,25.6
2017-11-07T12:10:51.962Z,25.5
2017-11-07T12:11:51.847Z,25.4
2017-11-07T12:12:52.167Z,25.4
2017-11-07T12:13:50.774Z,25.5
2017-11-07T12:14:52.160Z,25.6
2017-11-07T12:15:51.112Z,25.8
2017-11-07T12:16:52.264Z,26
2017-11-07T12:17:52.663Z,26.1
2017-11-07T12:18:51.176Z,26.2
2017-11-07T12:19:51.041Z,26.3
2017-11-07T12:20:52.917Z,26.4
2017-11-07T12:21:50.946Z,26.5
2017-11-07T12:22:52.560Z,26.5
2017-11-07T12:23:51.487Z,26.6
2017-11-07T12:24:52.880Z,26.6
2017-11-07T12:25:52.759Z,26.6
2017-11-07T12:26:53.374Z,26.6
2017-11-07T12:27:51.692Z,26.6
2017-11-07T12:28:51.237Z,26.6
2017-11-07T12:29:53.285Z,26.7
2017-11-07T12:30:53.096Z,26.8
2017-11-07T12:31:53.425Z,26.8
2017-11-07T12:32:53.177Z,26.9
2017-11-07T12:33:51.796Z,26.9
2017-11-07T12:34:53.519Z,26.8
2017-11-07T12:35:51.934Z,26.7
2017-11-07T12:36:52.003Z,26.6
2017-11-07T12:37:53.907Z,26.5
2017-11-07T12:38:52.513Z,26.4
2017-11-07T12:39:54.031Z,26.4
2017-11-07T12:40:53.641Z,26.3
2017-11-07T12:41:53.888Z,26.2
2017-11-07T12:42:53.767Z,26.1
2017-11-07T12:43:53.716Z,26.1
2017-11-07T12:44:54.234Z,26
2017-11-07T12:45:53.906Z,26
2017-11-07T12:46:52.338Z,25.9
2017-11-07T12:47:52.270Z,25.8
2017-11-07T12:48:52.376Z,25.8
2017-11-07T12:49:53.938Z,25.8
2017-11-07T12:50:52.440Z,25.7
2017-11-07T12:51:52.747Z,25.7
2017-11-07T12:52:54.520Z,25.7
2017-11-07T12:53:54.707Z,25.7
2017-11-07T12:54:54.664Z,25.7
2017-11-07T12:55:52.940Z,25.6
2017-11-07T12:56:53.066Z,25.5
2017-11-07T12:57:54.920Z,25.4
2017-11-07T12:58:54.507Z,25.4
2017-11-07T12:59:53.009Z,25.4
2017-11-07T13:00:54.638Z,25.3
2017-11-07T13:01:54.728Z,25.2
2017-11-07T13:02:55.006Z,25.1
2017-11-07T13:03:55.076Z,25
2017-11-07T13:04:53.462Z,24.7
2017-11-07T13:05:54.469Z,24.8
2017-11-07T13:06:53.539Z,24.8
2017-11-07T13:07:53.626Z,24.8
2017-11-07T13:08:55.508Z,24.7
2017-11-07T13:09:55.495Z,24.7
2017-11-07T13:10:53.515Z,24.7
2017-11-07T13:11:55.376Z,24.7
2017-11-07T13:12:55.250Z,24.7
2017-11-07T13:13:55.190Z,24.7
2017-11-07T13:14:55.427Z,24.8
2017-11-07T13:15:55.568Z,24.8
2017-11-07T13:16:55.669Z,24.8
2017-11-07T13:17:54.094Z,24.7
2017-11-07T13:18:54.086Z,24.7
2017-11-07T13:19:55.929Z,24.6
2017-11-07T13:20:55.861Z,24.6